Chester, Arkansas
Current Conditions -  °F | °C
As of 3:53 AM on Monday 22 Dec 2014 (Local Time) from KFYV Reporting Station
Overcast Overcast  
Wind Chill: 41°   Ceiling: 1400
Heat Index: 45°   Visibility: 10mi
Dew Point: 42°   Wind: 8mph
Humidity: 90%   Direction: 150°SSE
Pressure: 29.67"   Gusts: NA
Location:  35.68°N, 94.18°W
Report Text: KFYV 220953Z AUTO 15007KT 10SM BKN014 OVC027 07/06 A2967 RMK AO2 SLP047 T00720056
Loading
Personal Weather Stations






























Interactive Weather Map New forecast layout! Learn more

10-Day Weather Forecast

Advertisements
Track Severe Weather on mobile